Dry Fork, Kentucky
Current Conditions -  °F | °C
As of 7:35 PM on Tuesday 25 Nov 2014 (Local Time) from KGLW Reporting Station
Clear Clear  
Wind Chill: 37°   Ceiling: Unl
Heat Index: 37°   Visibility: 10mi
Dew Point: 29°   Wind: 0mph
Humidity: 73%   Direction: NA
Pressure: 30.17"   Gusts: NA
Location:  36.9602°N, 85.9175°W
Report Text: KGLW 260135Z AUTO 00000KT 10SM CLR 03/M01 A3017 RMK AO2 T00301015
Loading
Personal Weather Stations






























Interactive Weather Map New forecast layout! Learn more

10-Day Weather Forecast

Advertisements
Track Severe Weather on mobile